Tiempo atmosférico en la estación meteorológica de Málaga, Puerto, Málaga (20 m.)



Fecha
DESCASC
Temp. máxima en grados centígrados (hora)
DESCASC
Temp. mínima en grados centígrados (hora)
DESCASC
Temp. media en grados centígrados
DESCASC
Racha de viento máxima en m/sg (hora)
DESCASC
Velocidad máxima media en intervalos de 10 minutos(hora)
DESCASC
Precipitaciones diarias en mm
DESCASC
Precipitaciones de 00:00 a 06:00 en mm
DESCASC
Precipitaciones de 06:00 a 12:00 en mm
DESCASC
Precipitaciones de 12:00 a 18:00 en mm
DESCASC
Precipitaciones de 18:00 a 24:00 en mm
DESCASC
22-11-2020 19.4 (11:10) 13.5 (23:40) 16.4 11.11 (01:00) 6.94 (01:40) 0 0 0 0 0
21-11-2020 19.3 (12:00) 16.1 (03:30) 17.7 11.39 (23:59) 6.67 (22:30) 0 0 0 0 0
20-11-2020 23.3 (11:40) 14.9 (08:00) 19.1 4.44 (04:40) 2.78 (04:40) 0 0 0 0 0
19-11-2020 22.6 (10:00) 15.2 (00:00) 18.9 5.83 (16:50) 3.61 (12:50) 0 0 0 0 0
18-11-2020 22.5 (12:20) 15.6 (00:00) 19.1 3.61 (05:10) 1.94 (14:10) 0 0 0 0 0
17-11-2020 23.7 (10:50) 17.1 (00:00) 20.4 4.17 (00:10) 2.22 (00:20) 0 0 0 0 0
16-11-2020 27.7 (15:30) 16.4 (00:00) 22.1 8.61 (12:50) 5 (14:00) 0 0 0 0 0
15-11-2020 22.7 (09:50) 15.9 (00:00) 19.3 4.72 (11:50) 3.06 (11:50) 0 0 0 0 0
14-11-2020 19.7 (10:00) 17.1 (00:00) 18.4 1.94 (13:00) 1.11 (16:00) 0 0 0 0 0
13-11-2020 23.2 (11:00) 16.8 (00:00) 20 4.17 (14:00) 2.5 (13:40) 0 0 0 0 0
12-11-2020 21.1 (13:30) 15.2 (00:00) 18.2 7.78 (12:40) 5 (12:40) 0 0 0 0 0
11-11-2020 21.7 (14:00) 16.3 (00:00) 19 7.22 (18:20) 3.61 (14:40) 0 0 0 0 0
10-11-2020 22.5 (11:00) 15.1 (00:00) 18.8 5 (06:20) 2.5 (06:20) 0 0 0 0 0
09-11-2020 22 (10:10) 14.7 (00:00) 18.3 5 (14:00) 2.78 (14:00) 0 0 0 0 0
08-11-2020 24.6 (11:30) 14.7 (00:00) 19.7 4.17 (07:20) 2.5 (07:30) 0 0 0 0 0
07-11-2020 21 (17:00) 16.4 (00:00) 18.7 9.44 (14:30) 6.11 (15:30) 0.4 0 0.4 0 0
06-11-2020 25.6 (14:10) 16.8 (00:00) 21.2 16.11 (13:50) 6.39 (13:50) 4 0 0 0 4
05-11-2020 23.6 (22:10) 16 (00:00) 19.8 18.61 (00:40) 11.39 (01:10) 11.5 11.5 0 0 0
04-11-2020 21.8 (14:10) 15.9 (00:00) 18.8 14.44 (23:10) 9.17 (23:20) 2.5 0 0 0 2.5
03-11-2020 20.1 (11:50) 12.5 (00:00) 16.3 3.89 (12:40) 1.94 (12:40) 0 0 0 0 0
02-11-2020 19.3 (09:10) 15 (00:00) 17.1 5 (10:40) 2.5 (10:30) 0 0 0 0 0
01-11-2020 22.7 (10:30) 15.3 (00:00) 19 3.33 (03:30) 2.22 (14:00) 0 0 0 0 0
31-10-2020 23.7 (13:30) 16.3 (00:00) 20 3.61 (02:30) 2.22 (14:20) 0 0 0 0 0
30-10-2020 22.4 (11:30) 15 (00:00) 18.7 4.44 (05:30) 3.06 (05:20) 0 0 0 0 0
29-10-2020 22.9 (10:20) 14.2 (00:00) 18.5 4.72 (17:40) 2.78 (17:40) 0 0 0 0 0
28-10-2020 21.6 (11:30) 14.3 (00:00) 18 4.44 (06:40) 2.5 (23:00) 0 0 0 0 0
27-10-2020 24.7 (13:50) 13.2 (00:00) 19 7.78 (00:20) 5.83 (16:10) 0 0 0 0 0
26-10-2020 19.9 (13:50) 15.2 (00:00) 17.5 11.67 (11:10) 6.11 (06:40) 0.2 0.2 0 0 0

Gráficas

Temp. máximas Temp. mínimas Temp. medias Precipitaciones Rachas de viento máximas Velocidades máximas media en intervalos de 10 minutos

Datos horarios

Fecha y hora oficial Temperatura (ºC) Velocidad del viento (km/h) Dirección del viento Racha (km/h) Dirección de racha Precipitación (mm) Presión (hPa) Tendencia (hPa) Humedad (%)
2020-11-24 23:00:00 14.4 0 Calma 12 Norte 0 1018.5 -0.4 73
2020-11-24 22:00:00 14.3 0 Calma 12 Norte 0 1018.4 -0.4 73
2020-11-24 21:00:00 14.6 0 Calma 10 Norte 0 1018.7 -- 73
2020-11-24 20:00:00 15.1 0 Calma 4 Sudeste 0 1018.9 -- 73
2020-11-24 19:00:00 16.1 0 Calma 8 Sudeste 0 1018.8 -- 73
2020-11-24 18:00:00 16.5 5 Sudeste 10 Sudeste 0 1018.7 -- 67
2020-11-24 17:00:00 17.4 4 Sudeste 10 Sudeste 0 1018.7 -- 62
2020-11-24 16:00:00 17.3 5 Sudeste 14 Sudeste 0 1018.9 -- 58
2020-11-24 15:00:00 18 6 Sudeste 12 Este 0 1019.5 -- 53
2020-11-24 14:00:00 18.3 8 Sudeste 11 Sur 0 1020.5 -- 52
2020-11-24 13:00:00 19.5 4 Sudeste 9 Sudeste 0 1021.6 -- 49
2020-11-24 12:00:00 20 0 Calma 6 Este 0 1022.5 -- 46
2020-11-24 11:00:00 18.3 0 Calma 2 Noroeste 0 1023.2 -- 51
2020-11-24 10:00:00 14.4 0 Calma 13 Norte 0 1023.2 -- 65
2020-11-24 09:00:00 13.7 0 Calma 12 Norte 0 1023.1 -- 68
2020-11-24 08:00:00 12.2 8 Noroeste 14 Norte 0 1023 -- 72
2020-11-24 07:00:00 12.5 9 Noroeste 14 Norte 0 1022.8 -- 71
2020-11-24 06:00:00 12.4 0 Calma 15 Noroeste 0 1022.7 -- 72
2020-11-24 05:00:00 12.4 5 Noroeste 16 Noroeste 0 1022.9 -- 71
2020-11-24 04:00:00 12.5 0 Calma 13 Noroeste 0 1023.4 -- 69
2020-11-24 03:00:00 13.2 0 Calma 8 Norte 0 1023.5 -- 67
2020-11-24 02:00:00 13.4 0 Calma 9 Norte 0 1023.8 -- 66
2020-11-24 01:00:00 13.8 0 Calma 5 Nordeste 0 1024.2 -- 65
2020-11-24 00:00:00 13.7 0 Calma 3 Norte 0 1024.4 -- 65
2020-11-23 23:00:00 13.9 0 Calma 15 Norte 0 1024.6 -- 65
2020-11-23 22:00:00 14.3 0 Calma 11 Norte 0 1024.6 -- 65
2020-11-23 21:00:00 14.9 0 Calma 4 Noroeste 0 1024.7 -- 64
2020-11-23 20:00:00 15.5 3 Norte 14 Este 0 1024.4 -- 63
2020-11-23 19:00:00 16.4 10 Este 17 Este 0 1024.1 -- 62
2020-11-23 18:00:00 16.2 11 Sudeste 19 Este 0 1023.9 -- 62
2020-11-23 17:00:00 16.6 13 Sudeste 22 Este 0 1023.7 -- 62
2020-11-23 16:00:00 16.7 12 Sudeste 21 Este 0 1023.7 -- 60
2020-11-23 15:00:00 16.6 13 Sudeste 20 Este 0 1024.2 -- 60
2020-11-23 14:00:00 16.3 13 Sudeste 22 Sudeste 0 1024.7 -- 58
2020-11-23 13:00:00 16.7 12 Sudeste 26 Sudeste 0 1025.3 -- 58
2020-11-23 12:00:00 17 14 Este 23 Este 0 1025.9 -- 59
2020-11-23 11:00:00 16.8 14 Sudeste 23 Sudeste 0 1025.8 -- 58
2020-11-23 10:00:00 17.9 12 Este 20 Este 0 1025.4 -- 55
2020-11-23 09:00:00 15.8 0 Calma 8 Noroeste 0 1025.3 -- 61
2020-11-23 08:00:00 14.3 0 Calma 2 Nordeste 0 1025.2 -- 66
2020-11-23 07:00:00 14.1 0 Calma 0 Calma 0 1024.8 -- 67
2020-11-23 06:00:00 14 0 Calma 3 Nordeste 0 1024.6 -- 66
2020-11-23 05:00:00 13.8 0 Calma 12 Noroeste 0 1024.5 -- 66
2020-11-23 04:00:00 13.7 0 Calma 11 Noroeste 0 1024.7 -- 66
2020-11-23 03:00:00 14 3 Noroeste 9 Noroeste 0 1024.8 -- 65
2020-11-23 02:00:00 14 0 Calma 9 Noroeste 0 1024.8 -- 64
2020-11-23 01:00:00 13.4 6 Noroeste 13 Noroeste 0 1025.1 -- 64
2020-11-23 00:00:00 13.5 9 Noroeste 13 Noroeste 0 1025 -- 62
2020-11-22 23:00:00 13.8 5 Noroeste 14 Noroeste 0 1024.9 -- 60
2020-11-22 22:00:00 14 0 Calma 14 Noroeste 0 1024.6 -- 57
2020-11-22 21:00:00 14.6 0 Calma 4 Noroeste 0 1024.5 -- 55
2020-11-22 20:00:00 15.7 0 Calma 10 Nordeste 0 1024.1 -- 53
2020-11-22 19:00:00 16.5 7 Este 12 Este 0 1024 -- 53
2020-11-22 18:00:00 16.7 8 Este 15 Sudeste 0 1023.7 -- 55
2020-11-22 17:00:00 17.1 6 Sudeste 15 Sudeste 0 1023.8 -- 51
2020-11-22 16:00:00 17.7 10 Sudeste 17 Sudeste 0 1023.6 -- 51
2020-11-22 15:00:00 17.5 10 Sudeste 18 Sudeste 0 1023.9 -- 49
2020-11-22 14:00:00 17.1 12 Sudeste 21 Sudeste 0 1024.5 -- 50
2020-11-22 13:00:00 17.5 13 Sudeste 24 Este 0 1025.1 -- 50
2020-11-22 12:00:00 18.7 9 Este 28 Nordeste 0 1025.6 -- 47
2020-11-22 11:00:00 18.8 10 Este 23 Este 0 1026 -- 45
2020-11-22 10:00:00 16.8 12 Este 22 Nordeste 0 1025.8 -- 49
2020-11-22 09:00:00 16.5 10 Este 23 Nordeste 0 1025.6 -- 52
2020-11-22 08:00:00 16.1 13 Este 23 Este 0 1025.1 -- 57
2020-11-22 07:00:00 16.3 12 Este 24 Nordeste 0 1025 -- 60
2020-11-22 06:00:00 16.1 10 Este 22 Este 0 1024.6 -- 62
2020-11-22 05:00:00 16.2 11 Este 23 Este 0 1024.7 -- 62
2020-11-22 04:00:00 16.4 12 Este 36 Sudeste 0 1024.6 -- 62
2020-11-22 03:00:00 17.1 12 Este 40 Sudeste 0 1025 -- 61
2020-11-22 02:00:00 17.1 15 Este 38 Sudeste 0 1024.9 -- 65
2020-11-22 01:00:00 17.2 23 Sudeste 40 Sudeste 0 1024.9 -- 65
2020-11-22 00:00:00 17.4 22 Sudeste 41 Sudeste 0 1024.8 -- 64
2020-11-21 23:00:00 17.4 21 Este 36 Sudeste 0 1025.1 -- 65
2020-11-21 22:00:00 17.5 24 Sudeste 34 Sudeste 0 1024.7 -- 67
2020-11-21 21:00:00 17.6 20 Sudeste 30 Sudeste 0 1024.5 -- 67
2020-11-21 20:00:00 17.5 8 Este 23 Este 0 1024.2 -- 73
2020-11-21 19:00:00 17.4 12 Este 31 Nordeste 0 1023.6 -- 70
2020-11-21 18:00:00 17.5 3 Este 29 Sudeste 0 1023.4 -- 71
2020-11-21 17:00:00 17.4 17 Este 31 Sudeste 0 1023 -- 72
2020-11-21 16:00:00 18 6 Este 29 Sudeste 0 1022.8 -- 67
2020-11-21 15:00:00 18.1 10 Este 32 Sudeste 0 1022.7 -- 63
2020-11-21 14:00:00 18.4 12 Este 30 Nordeste 0 1023.2 -- 60
2020-11-21 13:00:00 18.7 8 Este 28 Este 0 1023.9 -- 63
2020-11-21 12:00:00 18.8 10 Este 27 Este 0 1024.3 -- 63
2020-11-21 11:00:00 17.8 11 Este 28 Sudeste 0 1024.4 -- 69
2020-11-21 10:00:00 17.8 8 Este 29 Este 0 1024 -- 72
2020-11-21 09:00:00 17.8 13 Este 32 Sudeste 0 1023.7 -- 75
2020-11-21 08:00:00 17.7 17 Sudeste 30 Sudeste 0 1023 -- 76
2020-11-21 07:00:00 17.6 8 Este 26 Nordeste 0 1022.2 -- 81
2020-11-21 06:00:00 17 0 Calma 5 Nordeste 0 1022.2 -- 76
2020-11-21 05:00:00 16.4 0 Calma 8 Noroeste 0 1022.2 -- 76
2020-11-21 04:00:00 16.3 0 Calma 2 Norte 0 1022.7 -- 76
2020-11-21 03:00:00 16.4 0 Calma 3 Norte 0 1022.3 -- 78
2020-11-21 02:00:00 16.8 0 Calma 3 Este 0 1022.5 -- 71
2020-11-21 01:00:00 16.8 0 Calma 6 Noroeste 0 1022.9 -- 72
2020-11-21 00:00:00 16.7 0 Calma 9 Noroeste 0 1023.1 -- 73
2020-11-20 23:00:00 16.6 0 Calma 8 Noroeste 0 1023 -- 74
2020-11-20 22:00:00 16.3 0 Calma 0 Calma 0 1022.7 -- 77
2020-11-20 21:00:00 16.8 0 Calma 10 Nordeste 0 1022.4 -- 76
2020-11-20 20:00:00 17.4 7 Este 14 Sudeste 0 1022.5 -- 79
2020-11-20 19:00:00 17.7 8 Sudeste 11 Sudeste 0 1022.3 -- 80
2020-11-20 18:00:00 17.9 7 Sudeste 12 Este 0 1021.9 -- 78
2020-11-20 17:00:00 18.3 7 Sudeste 12 Sudeste 0 1021.7 -- 72
2020-11-20 16:00:00 18.9 5 Sudeste 11 Sudeste 0 1021.5 -- 66
2020-11-20 15:00:00 19.3 6 Sudeste 10 Este 0 1021.6 -- 57
2020-11-20 14:00:00 21.2 0 Calma 9 Sur 0 1022.1 -- 50
2020-11-20 13:00:00 20.9 7 Sur 12 Sudeste 0 1023.1 -- 48
2020-11-20 12:00:00 22.1 0 Calma 3 Este 0 1023.9 -- 44
2020-11-20 11:00:00 21.4 0 Calma 0 Calma 0 1024.2 -- 52
2020-11-20 10:00:00 18.3 0 Calma 13 Noroeste 0 1024.4 -- 63
2020-11-20 09:00:00 15.8 0 Calma 14 Noroeste 0 1024.6 -- 69
2020-11-20 08:00:00 15 0 Calma 3 Norte 0 1024.7 -- 73
2020-11-20 07:00:00 15.1 0 Calma 14 Norte 0 1024.8 -- 73
2020-11-20 06:00:00 15.1 0 Calma 2 Norte 0 1024.8 -- 73
2020-11-20 05:00:00 15.4 0 Calma 16 Norte 0 1025 -- 72
2020-11-20 04:00:00 15.4 0 Calma 14 Norte 0 1025.2 -- 72
2020-11-20 03:00:00 15.6 0 Calma 13 Norte 0 1025.5 -- 71
2020-11-20 02:00:00 16.1 3 Norte 13 Noroeste 0 1025.7 -- 70
2020-11-20 01:00:00 16.6 0 Calma 2 Norte 0 1026.5 -- 68
2020-11-20 00:00:00 17.7 0 Calma 0 Calma 0 1026.6 -- 65
2020-11-19 23:00:00 18.4 0 Calma 4 Nordeste 0 1026.5 -- 65
2020-11-19 22:00:00 18.8 0 Calma 9 Sudeste 0 1026.5 -- 66
2020-11-19 21:00:00 18.7 2 Este 9 Este 0 1026.5 -- 68
2020-11-19 20:00:00 18.6 5 Sudeste 14 Este 0 1026.3 -- 72
2020-11-19 19:00:00 18.4 0 Calma 15 Sudeste 0 1026.1 -- 73
2020-11-19 18:00:00 18.5 8 Sudeste 18 Sudeste 0 1025.8 -- 71
2020-11-19 17:00:00 18.1 10 Sudeste 21 Este 0 1025.5 -- 71
2020-11-19 16:00:00 18.4 12 Sudeste 19 Sudeste 0 1025.4 -- 78
2020-11-19 15:00:00 18.6 12 Sudeste 18 Sudeste 0 1025.3 -- 74
2020-11-19 14:00:00 20.2 6 Sudeste 17 Sudeste 0 1025.7 -- 63
2020-11-19 13:00:00 19.3 12 Sudeste 20 Sudeste 0 1026.1 -- 65
2020-11-19 12:00:00 19.5 0 Calma 11 Sudeste 0 1026.7 -- 61
2020-11-19 11:00:00 20.8 4 Sudeste 12 Sudeste 0 1026.4 -- 54
2020-11-19 10:00:00 22.6 0 Calma 3 Este 0 1026.1 -- 53
2020-11-19 09:00:00 17.3 0 Calma 9 Noroeste 0 1025.7 -- 71
2020-11-19 08:00:00 16.4 0 Calma 2 Norte 0 1025.3 -- 75
2020-11-19 07:00:00 16 0 Calma 8 Noroeste 0 1024.6 -- 76
2020-11-19 06:00:00 15.4 2 Norte 10 Norte 0 1024.3 -- 77
2020-11-19 05:00:00 15.3 0 Calma 12 Norte 0 1023.9 -- 78
2020-11-19 04:00:00 15.3 0 Calma 12 Norte 0 1024.1 -- 77
2020-11-19 03:00:00 15.4 2 Norte 10 Norte 0 1023.9 -- 77
2020-11-19 02:00:00 15.8 0 Calma 8 Norte 0 1024.2 -- 77
2020-11-19 01:00:00 16.2 0 Calma 2 Norte 0 1024.3 -- 77
2020-11-19 00:00:00 16.7 0 Calma 8 Norte 0 1024.4 -- 78
2020-11-18 23:00:00 17.2 0 Calma 5 Norte 0 1024.2 -- 79
2020-11-18 22:00:00 17.6 0 Calma 8 Este 0 1023.9 -- 82
2020-11-18 21:00:00 18.2 0 Calma 5 Este 0 1023.6 -- 84
2020-11-18 20:00:00 18.2 2 Este 6 Este 0 1023.4 -- 85
2020-11-18 19:00:00 18.2 4 Este 9 Este 0 1023.4 -- 85
2020-11-18 18:00:00 18.3 5 Este 9 Este 0 1023.3 -- 85
2020-11-18 17:00:00 18.4 6 Sudeste 8 Sudeste 0 1023.1 -- 82
2020-11-18 16:00:00 19.6 2 Sudeste 8 Este 0 1023.1 -- 78
2020-11-18 15:00:00 18.9 5 Este 10 Este 0 1023.6 -- 81
2020-11-18 14:00:00 19.4 4 Sudeste 10 Sudeste 0 1023.9 -- 78
2020-11-18 13:00:00 19.4 6 Sudeste 10 Sudeste 0 1024.6 -- 69
2020-11-18 12:00:00 19.9 3 Sudeste 7 Sudeste 0 1025.2 -- 67
2020-11-18 11:00:00 19.8 0 Calma 0 Calma 0 1025.5 -- 65
2020-11-18 10:00:00 19.1 0 Calma 2 Noroeste 0 1025.2 -- 68
2020-11-18 09:00:00 17.1 0 Calma 2 Oeste 0 1024.8 -- 73
2020-11-18 08:00:00 16.6 0 Calma 4 Nordeste 0 1024.7 -- 76
2020-11-18 07:00:00 16.2 0 Calma 9 Norte 0 1024.4 -- 78
2020-11-18 06:00:00 15.7 0 Calma 13 Norte 0 1023.8 -- 80
2020-11-18 05:00:00 16.2 0 Calma 8 Nordeste 0 1023.7 -- 81
2020-11-18 04:00:00 16.3 0 Calma 6 Nordeste 0 1023.7 -- 81
2020-11-18 03:00:00 16.5 0 Calma 12 Norte 0 1023.6 -- 82
2020-11-18 02:00:00 16.8 0 Calma 8 Norte 0 1023.5 -- 82
2020-11-18 01:00:00 17.4 0 Calma 0 Calma 0 1023.9 -- 84
2020-11-18 00:00:00 17.5 0 Calma 0 Calma 0 1024 -- 86
2020-11-17 23:00:00 17.8 0 Calma 0 Calma 0 1024 -- 83
2020-11-17 22:00:00 18.3 0 Calma 0 Calma 0 1023.8 -- 82
2020-11-17 21:00:00 18.5 0 Calma 0 Calma 0 1023.8 -- 83
2020-11-17 20:00:00 18.6 0 Calma 0 Calma 0 1023.5 -- 84
2020-11-17 19:00:00 18.4 0 Calma 8 Nordeste 0 1023.2 -- 85
2020-11-17 18:00:00 18.6 0 Calma 8 Sudeste 0 1023.1 -- 84
2020-11-17 17:00:00 18.7 6 Sudeste 10 Sudeste 0 1022.9 -- 83
2020-11-17 16:00:00 20.1 0 Calma 11 Sudeste 0 1022.6 -- 74
2020-11-17 15:00:00 21 2 Sudeste 13 Sudeste 0 1022.7 -- 71
2020-11-17 14:00:00 21.3 0 Calma 12 Sudeste 0 1022.9 -- 69
2020-11-17 13:00:00 22.1 0 Calma 9 Sudeste 0 1023.4 -- 60
2020-11-17 12:00:00 22 4 Sudeste 9 Sur 0 1023.9 -- 58
2020-11-17 11:00:00 23.1 0 Calma 0 Calma 0 1023.7 -- 48
2020-11-17 10:00:00 20.4 0 Calma 6 Noroeste 0 1023.2 -- 53
2020-11-17 09:00:00 18.7 0 Calma 10 Norte 0 1022.7 -- 60
2020-11-17 08:00:00 17.2 0 Calma 2 Noroeste 0 1022.3 -- 62
2020-11-17 07:00:00 17.2 0 Calma 0 Calma 0 1021.9 -- 59
2020-11-17 06:00:00 17.6 0 Calma 13 Norte 0 1021.5 -- 56
2020-11-17 05:00:00 17.7 2 Noroeste 8 Norte 0 1021.3 -- 54
2020-11-17 04:00:00 18.3 0 Calma 9 Norte 0 1021.2 -- 52
2020-11-17 03:00:00 18.5 0 Calma 3 Norte 0 1020.9 -- 52
2020-11-17 02:00:00 18.9 0 Calma 2 Noroeste 0 1020.9 -- 52
2020-11-17 01:00:00 20.1 0 Calma 15 Nordeste 0 1020.8 -- 52
2020-11-17 00:00:00 21.2 0 Calma 22 Norte 0 1020.6 -- 48
2020-11-16 23:00:00 21.7 4 Noroeste 19 Noroeste 0 1020.3 -- 50
2020-11-16 22:00:00 21.8 0 Calma 3 Sudoeste 0 1020.4 -- 51
2020-11-16 21:00:00 22.4 0 Calma 2 Oeste 0 1020 -- 48
2020-11-16 20:00:00 23.6 0 Calma 4 Nordeste 0 1019.2 -- 40
2020-11-16 19:00:00 24 0 Calma 21 Noroeste 0 1018.8 -- 33
2020-11-16 18:00:00 25.9 11 Noroeste 28 Norte 0 1017.9 -- 28
2020-11-16 17:00:00 27.1 10 Noroeste 24 Noroeste 0 1017.5 -- 29
2020-11-16 16:00:00 27.5 9 Noroeste 28 Norte 0 1017.4 -- 30
2020-11-16 15:00:00 27.2 13 Noroeste 31 Noroeste 0 1017.3 -- 31
2020-11-16 14:00:00 26.4 18 Noroeste 31 Noroeste 0 1017.7 -- 32
2020-11-16 13:00:00 26.5 5 Noroeste 31 Noroeste 0 1018.6 -- 31
2020-11-16 12:00:00 24.7 0 Calma 21 Oeste 0 1019.4 -- 40
2020-11-16 11:00:00 22.3 3 Oeste 16 Oeste 0 1019.7 -- 47
2020-11-16 10:00:00 19.3 0 Calma 3 Sudoeste 0 1019.7 -- 62
2020-11-16 09:00:00 18.5 0 Calma 3 Noroeste 0 1019.5 -- 64
2020-11-16 08:00:00 17.3 0 Calma 3 Noroeste 0 1018.8 -- 73
2020-11-16 07:00:00 16.9 0 Calma 2 Norte 0 1018.7 -- 70
2020-11-16 06:00:00 17 0 Calma 0 Calma 0 1018.7 -- 76
2020-11-16 05:00:00 16.5 0 Calma 0 Calma 0 1018.9 -- 80
2020-11-16 04:00:00 16.4 0 Calma 0 Calma 0 1019.2 -- 84
2020-11-16 03:00:00 16.8 0 Calma 0 Calma 0 1019.5 -- 78
2020-11-16 02:00:00 17.1 0 Calma 2 Norte 0 1020.1 -- 78
2020-11-16 01:00:00 16.9 0 Calma 0 Calma 0 1020.4 -- 81
2020-11-16 00:00:00 17.3 0 Calma 0 Calma 0 1020.6 -- 81
2020-11-15 23:00:00 17.4 0 Calma 0 Calma 0 1020.6 -- 81
2020-11-15 22:00:00 17.3 0 Calma 0 Calma 0 1020.5 -- 87
2020-11-15 21:00:00 17.9 0 Calma 0 Calma 0 1020.4 -- 87
2020-11-15 20:00:00 18.3 0 Calma 0 Calma 0 1019.9 -- 84
2020-11-15 19:00:00 18.5 0 Calma 0 Calma 0 1019.4 -- 82
2020-11-15 18:00:00 18.7 0 Calma 5 Este 0 1019 -- 78
2020-11-15 17:00:00 19.8 4 Este 8 Este 0 1018.8 -- 70
2020-11-15 16:00:00 20.2 3 Sudeste 9 Sudeste 0 1018.8 -- 66
2020-11-15 15:00:00 19.8 6 Sudeste 10 Este 0 1018.7 -- 67
2020-11-15 14:00:00 20.9 3 Este 9 Sudeste 0 1018.9 -- 64
2020-11-15 13:00:00 19.1 6 Sudeste 12 Este 0 1019.5 -- 70
2020-11-15 12:00:00 20.4 6 Este 17 Este 0 1020.2 -- 65
2020-11-15 11:00:00 20.2 0 Calma 5 Este 0 1020.3 -- 56
2020-11-15 10:00:00 19.4 0 Calma 3 Este 0 1019.7 -- 60
2020-11-15 09:00:00 18.7 0 Calma 0 Calma 0 1019.5 -- 65
2020-11-15 08:00:00 16.3 0 Calma 14 Noroeste 0 1019.1 -- 73
2020-11-15 07:00:00 16.4 0 Calma 0 Calma 0 1019 -- 75
2020-11-15 06:00:00 16 0 Calma 0 Calma 0 1018.8 -- 80
2020-11-15 05:00:00 16.2 0 Calma 0 Calma 0 1018.4 -- 81
2020-11-15 04:00:00 16.6 0 Calma 3 Norte 0 1018.8 -- 82
2020-11-15 03:00:00 16.8 0 Calma 3 Sudoeste 0 1018.9 -- 81
2020-11-15 02:00:00 16.9 0 Calma 2 Sudoeste 0 1019.2 -- 82
2020-11-15 01:00:00 17.3 0 Calma 3 Nordeste 0 1019.4 -- 78
2020-11-15 00:00:00 17.3 0 Calma 2 Noroeste 0 1019.6 -- 82
2020-11-14 23:00:00 17.6 0 Calma 2 Oeste 0 1019.8 -- 80
2020-11-14 22:00:00 17.7 0 Calma 0 Calma 0 1019.8 -- 81
2020-11-14 21:00:00 17.3 0 Calma 0 Calma 0 1019.4 -- 83
2020-11-14 20:00:00 17.9 0 Calma 0 Calma 0 1019.4 -- 86
2020-11-14 19:00:00 18.2 0 Calma 0 Calma 0 1018.8 -- 84
2020-11-14 18:00:00 18.5 0 Calma 2 Este 0 1018.5 -- 79
2020-11-14 17:00:00 18.6 0 Calma 5 Este 0 1018.3 -- 79
2020-11-14 16:00:00 18.5 4 Este 7 Este 0 1018 -- 79
2020-11-14 15:00:00 19.2 0 Calma 3 Este 0 1018.3 -- 76
2020-11-14 14:00:00 18.7 0 Calma 7 Sudeste 0 1018.5 -- 72
2020-11-14 13:00:00 19.3 3 Sudeste 7 Sudeste 0 1019 -- 73
2020-11-14 12:00:00 18.8 0 Calma 6 Este 0 1019.6 -- 74
2020-11-14 11:00:00 18.2 0 Calma 6 Este 0 1019.7 -- 74
2020-11-14 10:00:00 19.6 0 Calma 3 Nordeste 0 1019.5 -- 68
2020-11-14 09:00:00 17.5 0 Calma 3 Sudeste 0 1018.8 -- 78
2020-11-14 08:00:00 17.2 0 Calma 0 Calma 0 1018 -- 82
2020-11-14 07:00:00 17.1 0 Calma 5 Nordeste 0 1017.7 -- 83
2020-11-14 06:00:00 17.2 0 Calma 3 Nordeste 0 1017.5 -- 83
2020-11-14 05:00:00 17.4 0 Calma 0 Calma 0 1017.4 -- 83
2020-11-14 04:00:00 17.5 0 Calma 0 Calma 0 1017.4 -- 83
2020-11-14 03:00:00 17.5 0 Calma 3 Este 0 1017.6 -- 85
2020-11-14 02:00:00 17.6 0 Calma 6 Nordeste 0 1018 -- 86
2020-11-14 01:00:00 17.9 0 Calma 5 Este 0 1018.5 -- 84
2020-11-14 00:00:00 18.1 0 Calma 5 Nordeste 0 1018.6 -- 83
2020-11-13 23:00:00 18.1 0 Calma 3 Nordeste 0 1018.7 -- 84
2020-11-13 22:00:00 18 0 Calma 5 Este 0 1018.6 -- 84
2020-11-13 21:00:00 17.9 0 Calma 0 Calma 0 1018.2 -- 83
2020-11-13 20:00:00 18.1 0 Calma 0 Calma 0 1017.7 -- 80
2020-11-13 19:00:00 18.2 0 Calma 4 Este 0 1017.3 -- 78
2020-11-13 18:00:00 18.4 0 Calma 6 Este 0 1017 -- 76
2020-11-13 17:00:00 18.5 4 Este 6 Sudeste 0 1016.8 -- 75
2020-11-13 16:00:00 18.7 5 Sudeste 10 Sudeste 0 1016.7 -- 72
2020-11-13 15:00:00 18.9 6 Sudeste 11 Sur 0 1017.1 -- 69
2020-11-13 14:00:00 20.5 6 Sudeste 15 Sur 0 1017.5 -- 64
2020-11-13 13:00:00 20.9 0 Calma 4 Este 0 1017.9 -- 59
2020-11-13 12:00:00 21.2 0 Calma 2 Sudeste 0 1018.5 -- 56
2020-11-13 11:00:00 22.7 0 Calma 3 Este 0 1018.4 -- 51
2020-11-13 10:00:00 19.4 0 Calma 0 Calma 0 1018.4 -- 64
2020-11-13 09:00:00 17.1 0 Calma 5 Noroeste 0 1017.9 -- 72
2020-11-13 08:00:00 16.9 0 Calma 5 Nordeste 0 1017.3 -- 76
2020-11-13 07:00:00 16.8 0 Calma 8 Norte 0 1016.9 -- 78
2020-11-13 06:00:00 17 0 Calma 3 Norte 0 1016.8 -- 79
2020-11-13 05:00:00 17.2 0 Calma 5 Este 0 1016.6 -- 81
2020-11-13 04:00:00 17.7 0 Calma 7 Este 0 1016.9 -- 82
2020-11-13 03:00:00 17.6 2 Este 9 Nordeste 0 1017.1 -- 84
2020-11-13 02:00:00 17.9 2 Sudeste 8 Sudeste 0 1017.3 -- 83
2020-11-13 01:00:00 18.1 4 Este 11 Este 0 1017.6 -- 80
2020-11-13 00:00:00 18.1 4 Este 11 Nordeste 0 1017.8 -- 79
2020-11-12 23:00:00 18.2 3 Este 14 Este 0 1017.8 -- 79
2020-11-12 22:00:00 18.2 5 Este 15 Nordeste 0 1017.6 -- 79
2020-11-12 21:00:00 18.3 5 Este 17 Este 0 1017.1 -- 76
2020-11-12 20:00:00 18.6 5 Este 16 Nordeste 0 1017 -- 69
2020-11-12 19:00:00 18.4 5 Este 17 Sudeste 0 1016.8 -- 70
2020-11-12 18:00:00 18.2 9 Sudeste 18 Sudeste 0 1016.8 -- 72
2020-11-12 17:00:00 18.1 4 Este 16 Sudeste 0 1016.6 -- 72
2020-11-12 16:00:00 18.8 11 Sudeste 19 Sudeste 0 1016.4 -- 65
2020-11-12 15:00:00 18.9 13 Sudeste 24 Sudeste 0 1016.2 -- 63
2020-11-12 14:00:00 20.1 6 Este 20 Este 0 1016.7 -- 49
2020-11-12 13:00:00 19.2 17 Sudeste 28 Sudeste 0 1017.6 -- 61
2020-11-12 12:00:00 20.1 9 Sudeste 24 Sudeste 0 1018.5 -- 56
2020-11-12 11:00:00 19.5 4 Sudeste 19 Sudeste 0 1019 -- 59
2020-11-12 10:00:00 19.2 5 Este 14 Este 0 1019 -- 61
2020-11-12 09:00:00 16.8 0 Calma 8 Norte 0 1019.1 -- 71
2020-11-12 08:00:00 15.4 0 Calma 3 Norte 0 1018.9 -- 77
2020-11-12 07:00:00 15.4 0 Calma 11 Norte 0 1018.8 -- 78
2020-11-12 06:00:00 15.5 0 Calma 12 Norte 0 1018.7 -- 78
2020-11-12 05:00:00 15.8 0 Calma 13 Norte 0 1018.7 -- 77
2020-11-12 04:00:00 16 0 Calma 9 Norte 0 1019 -- 76
2020-11-12 03:00:00 16.1 0 Calma 8 Noroeste 0 1019.7 -- 74
2020-11-12 02:00:00 16.2 0 Calma 10 Nordeste 0 1019.8 -- 73
2020-11-12 01:00:00 16.4 0 Calma 9 Noroeste 0 1020.3 -- 72
2020-11-12 00:00:00 17.1 0 Calma 8 Norte 0 1020.6 -- 72
2020-11-11 23:00:00 17.7 0 Calma 0 Calma 0 1020.7 -- 83
2020-11-11 22:00:00 17.9 0 Calma 6 Sudeste 0 1020.4 -- 80
2020-11-11 21:00:00 18.1 4 Este 17 Este 0 1020.1 -- 78
2020-11-11 20:00:00 18.1 5 Este 19 Nordeste 0 1019.9 -- 76
2020-11-11 19:00:00 18.2 10 Este 26 Este 0 1019.7 -- 74
2020-11-11 18:00:00 18 10 Sudeste 24 Sudeste 0 1019.4 -- 78
2020-11-11 17:00:00 18.3 10 Este 22 Este 0 1019.3 -- 73
2020-11-11 16:00:00 18.8 11 Sudeste 23 Sudeste 0 1018.9 -- 70
2020-11-11 15:00:00 18.9 12 Sudeste 22 Sudeste 0 1019.1 -- 67
2020-11-11 14:00:00 21.2 5 Este 17 Este 0 1019.6 -- 55
2020-11-11 13:00:00 20.7 6 Este 19 Este 0 1020.4 -- 57
2020-11-11 12:00:00 19.8 8 Este 23 Este 0 1021.4 -- 61
2020-11-11 11:00:00 20.4 3 Este 21 Este 0 1021.7 -- 59
2020-11-11 10:00:00 19.1 6 Este 18 Este 0 1021.7 -- 65
2020-11-11 09:00:00 18 5 Este 15 Este 0 1022 -- 72
2020-11-11 08:00:00 17.3 3 Este 11 Este 0 1021.6 -- 74
2020-11-11 07:00:00 17.5 2 Este 10 Este 0 1021.4 -- 74
2020-11-11 06:00:00 16.9 0 Calma 0 Calma 0 1021.5 -- 79
2020-11-11 05:00:00 17 0 Calma 0 Calma 0 1021.7 -- 79
2020-11-11 04:00:00 16.7 0 Calma 5 Este 0 1022.2 -- 79
2020-11-11 03:00:00 17.4 0 Calma 6 Este 0 1022.5 -- 82
2020-11-11 02:00:00 16.8 0 Calma 2 Norte 0 1022.7 -- 72
2020-11-11 01:00:00 16.5 0 Calma 6 Norte 0 1023 -- 70
2020-11-11 00:00:00 16.3 0 Calma 2 Norte 0 1023 -- 71
2020-11-10 23:00:00 16.5 0 Calma 10 Norte 0 1022.9 -- 71
2020-11-10 22:00:00 16.9 0 Calma 12 Norte 0 1022.8 -- 72
2020-11-10 21:00:00 17.3 0 Calma 5 Norte 0 1022.1 -- 72
2020-11-10 20:00:00 17.6 0 Calma 3 Norte 0 1021.7 -- 74
2020-11-10 19:00:00 17.7 0 Calma 5 Este 0 1021.5 -- 84
2020-11-10 18:00:00 18.1 0 Calma 11 Sudeste 0 1021.2 -- 83
2020-11-10 17:00:00 18.6 6 Sudeste 13 Sudeste 0 1020.7 -- 78
2020-11-10 16:00:00 18.7 6 Sudeste 11 Sur 0 1020.5 -- 74
2020-11-10 15:00:00 20.2 0 Calma 10 Sur 0 1020.1 -- 68
2020-11-10 14:00:00 20.7 0 Calma 7 Sur 0 1020.9 -- 63
2020-11-10 13:00:00 20.5 0 Calma 2 Sur 0 1021.3 -- 61
2020-11-10 12:00:00 20.9 0 Calma 6 Este 0 1021.9 -- 56
2020-11-10 11:00:00 22.3 0 Calma 0 Calma 0 1022.1 -- 48
2020-11-10 10:00:00 19.4 0 Calma 7 Noroeste 0 1021.9 -- 53
2020-11-10 09:00:00 16 5 Noroeste 9 Norte 0 1021.5 -- 63
2020-11-10 08:00:00 15.2 0 Calma 14 Noroeste 0 1021.1 -- 67
2020-11-10 07:00:00 15.9 0 Calma 18 Noroeste 0 1020.4 -- 68
2020-11-10 06:00:00 16 0 Calma 17 Noroeste 0 1020.2 -- 68
2020-11-10 05:00:00 16 0 Calma 14 Noroeste 0 1019.8 -- 68
2020-11-10 04:00:00 15.9 0 Calma 4 Noroeste 0 1019.8 -- 68
2020-11-10 03:00:00 16.4 0 Calma 17 Oeste 0 1020 -- 67
2020-11-10 02:00:00 17 0 Calma 14 Oeste 0 1019.9 -- 61
2020-11-10 01:00:00 17.5 0 Calma 5 Oeste 0 1020 -- 59
2020-11-10 00:00:00 17.8 0 Calma 10 Oeste 0 1020.2 -- 60
2020-11-09 23:00:00 18.1 0 Calma 2 Norte 0 1020.3 -- 61
2020-11-09 22:00:00 18.2 0 Calma 0 Calma 0 1020.1 -- 63
2020-11-09 21:00:00 18.3 0 Calma 0 Calma 0 1020 -- 65
2020-11-09 20:00:00 18.7 0 Calma 4 Noroeste 0 1019.9 -- 69
2020-11-09 19:00:00 18.2 0 Calma 10 Este 0 1019.3 -- 77
2020-11-09 18:00:00 19.1 5 Este 14 Este 0 1019 -- 70
2020-11-09 17:00:00 19.8 5 Este 12 Este 0 1018.6 -- 72
2020-11-09 16:00:00 20 0 Calma 12 Sur 0 1018.4 -- 67
2020-11-09 15:00:00 20.9 0 Calma 16 Sur 0 1018.3 -- 66
2020-11-09 14:00:00 19.4 10 Sur 18 Sur 0 1018.6 -- 69
2020-11-09 13:00:00 21 0 Calma 11 Sudoeste 0 1019.2 -- 47
2020-11-09 12:00:00 20.4 8 Sudoeste 15 Sudoeste 0 1020.1 -- 48
2020-11-09 11:00:00 20 0 Calma 3 Sur 0 1020.3 -- 52
2020-11-09 10:00:00 21.5 0 Calma 0 Calma 0 1020.1 -- 49
2020-11-09 09:00:00 16.6 0 Calma 0 Calma 0 1019.7 -- 63
2020-11-09 08:00:00 14.8 0 Calma 0 Calma 0 1019.7 -- 71
2020-11-09 07:00:00 15.1 0 Calma 14 Norte 0 1019.1 -- 68
2020-11-09 06:00:00 15 0 Calma 2 Norte 0 1018.9 -- 68
2020-11-09 05:00:00 15.3 0 Calma 2 Norte 0 1018.7 -- 67
2020-11-09 04:00:00 15.5 0 Calma 8 Noroeste 0 1018.9 -- 66
2020-11-09 03:00:00 15.5 3 Noroeste 10 Noroeste 0 1019.1 -- 65
2020-11-09 02:00:00 15.7 0 Calma 2 Noroeste 0 1019.1 -- 64
2020-11-09 01:00:00 15.9 0 Calma 10 Norte 0 1019.4 -- 64
2020-11-09 00:00:00 16 0 Calma 10 Norte 0 1019.5 -- 64
2020-11-08 23:00:00 16.4 0 Calma 10 Norte 0 1019.6 -- 64
2020-11-08 22:00:00 16.7 0 Calma 6 Nordeste 0 1019.4 -- 64
2020-11-08 21:00:00 17.1 0 Calma 0 Calma 0 1019 -- 65
2020-11-08 20:00:00 17.4 0 Calma 6 Este 0 1018.8 -- 71
2020-11-08 19:00:00 17.5 4 Este 7 Este 0 1018.7 -- 75
2020-11-08 18:00:00 18.3 0 Calma 6 Sudeste 0 1018.5 -- 68
2020-11-08 17:00:00 18.2 0 Calma 9 Sudeste 0 1018.4 -- 69
2020-11-08 16:00:00 18.7 7 Sudeste 13 Este 0 1018.3 -- 70
2020-11-08 15:00:00 18.7 0 Calma 10 Sur 0 1018.5 -- 66
2020-11-08 14:00:00 20 0 Calma 8 Sudeste 0 1018.6 -- 59
2020-11-08 13:00:00 21.2 0 Calma 9 Sudeste 0 1019.1 -- 48
2020-11-08 12:00:00 21 3 Sudeste 7 Sudeste 0 1019.9 -- 45
2020-11-08 11:00:00 22.6 0 Calma 2 Sudoeste 0 1020.1 -- 48
2020-11-08 10:00:00 18.9 0 Calma 2 Noroeste 0 1020.1 -- 60
2020-11-08 09:00:00 16.1 0 Calma 6 Oeste 0 1020.2 -- 68
2020-11-08 08:00:00 14.8 6 Oeste 15 Noroeste 0 1020 -- 75
2020-11-08 07:00:00 15.1 0 Calma 5 Norte 0 1019.9 -- 72
2020-11-08 06:00:00 15 0 Calma 2 Noroeste 0 1019.9 -- 76
2020-11-08 05:00:00 15.3 0 Calma 14 Norte 0 1019.6 -- 69
2020-11-08 04:00:00 15.5 0 Calma 12 Noroeste 0 1019.9 -- 68
2020-11-08 03:00:00 15.8 0 Calma 8 Norte 0 1020.1 -- 69
2020-11-08 02:00:00 16 2 Norte 13 Noroeste 0 1020.2 -- 70
2020-11-08 01:00:00 16.1 4 Norte 13 Norte 0 1020.3 -- 70
2020-11-08 00:00:00 16.4 3 Norte 13 Norte 0 1020.7 -- 70
2020-11-07 23:00:00 17.2 3 Norte 10 Norte 0 1020.7 -- 72
2020-11-07 22:00:00 17.8 0 Calma 14 Sudeste 0 1020.4 -- 71
2020-11-07 21:00:00 17.9 0 Calma 16 Norte 0 1019.5 -- 66
2020-11-07 20:00:00 19 0 Calma 9 Nordeste 0 1019.4 -- 66
2020-11-07 19:00:00 18.8 6 Nordeste 16 Este 0 1019.1 -- 71
2020-11-07 18:00:00 19.2 8 Este 13 Este 0 1018.6 -- 69
2020-11-07 17:00:00 21 0 Calma 18 Sudoeste 0 1018.2 -- 62
2020-11-07 16:00:00 20.1 15 Sudoeste 32 Sudoeste 0 1018.2 -- 65
2020-11-07 15:00:00 20 0 Calma 34 Sudoeste 0 1018.1 -- 67
2020-11-07 14:00:00 19.7 15 Sur 26 Sur 0 1018 -- 67
2020-11-07 13:00:00 19.9 17 Sudoeste 31 Sudoeste 0 1018.4 -- 64
2020-11-07 12:00:00 19.5 15 Sudoeste 27 Sur 0 1018.4 -- 66
2020-11-07 11:00:00 20.6 3 Sur 18 Sudoeste 0 1018.1 -- 64
2020-11-07 10:00:00 19.4 5 Sur 17 Sudoeste 0 1017.5 -- 64
2020-11-07 09:00:00 18.6 0 Calma 6 Sudeste 0 1016.6 -- 76
2020-11-07 08:00:00 17.9 0 Calma 16 Sur 0 1015.2 -- 77
2020-11-07 07:00:00 17.8 11 Sur 28 Sudeste 0.4 1014.5 -- 79
2020-11-07 06:00:00 18.1 18 Sudeste 31 Sudeste 0 1013.5 -- 69
2020-11-07 05:00:00 17.6 10 Este 31 Sudeste 0 1012.4 -- 73
2020-11-07 04:00:00 17.8 8 Este 23 Este 0 1012.5 -- 72
2020-11-07 03:00:00 18.1 8 Este 20 Este 0 1012.6 -- 68
2020-11-07 02:00:00 18.6 10 Este 18 Nordeste 0 1012.2 -- 65
2020-11-07 01:00:00 17.3 0 Calma 14 Norte 0 1012.1 -- 76
2020-11-07 00:00:00 17.9 7 Este 24 Nordeste 2.9 1012.4 -- 70
2020-11-06 23:00:00 19.1 0 Calma 16 Norte 0.6 1013.4 -- 60
2020-11-06 22:00:00 20.2 0 Calma 19 Oeste 0.5 1011.4 -- 51
2020-11-06 21:00:00 21.5 0 Calma 15 Oeste 0 1010.8 -- 48
2020-11-06 20:00:00 22.6 8 Oeste 19 Norte 0 1009.3 -- 43
2020-11-06 19:00:00 22.8 8 Norte 10 Norte 0 1008.4 -- 42
2020-11-06 18:00:00 22.2 0 Calma 30 Sudoeste 0 1008.7 -- 47
2020-11-06 17:00:00 23.8 9 Sudeste 37 Sudeste 0 1007.3 -- 38
2020-11-06 16:00:00 23 13 Este 42 Sudeste 0 1006.5 -- 37
2020-11-06 15:00:00 24.6 17 Sudeste 52 Este 0 1005.7 -- 35
2020-11-06 14:00:00 24.8 15 Este 58 Este 0 1006.5 -- 33
2020-11-06 13:00:00 24.4 14 Este 50 Este 0 1007.5 -- 35
2020-11-06 12:00:00 23.8 13 Este 50 Este 0 1008.4 -- 37
2020-11-06 11:00:00 23.4 10 Este 33 Este 0 1008.3 -0.4 37
2020-11-06 10:00:00 22.6 10 Este 33 Este 0 1008.9 -- 42
2020-11-06 09:00:00 22.4 8 Este 30 Sudeste 0 1008.5 -- 43
2020-11-06 08:00:00 21.5 9 Sudeste 37 Sudeste 0 1008.7 -- 47
2020-11-06 07:00:00 21.3 0 Calma 8 Sudeste 0 1009.1 -- 48
2020-11-06 06:00:00 17.8 0 Calma 0 Calma 0 1009.3 -- 55
2020-11-06 05:00:00 17.9 0 Calma 5 Norte 0 1009.2 -- 54
2020-11-06 04:00:00 18.2 0 Calma 0 Calma 0 1009.3 -- 50
2020-11-06 03:00:00 19 0 Calma 4 Norte 0 1009.4 -- 46
2020-11-06 02:00:00 19.7 0 Calma 0 Calma 0 1009.7 -- 47
2020-11-06 01:00:00 20.1 0 Calma 3 Oeste 0 1010.2 -- 46
2020-11-06 00:00:00 21.2 0 Calma 10 Nordeste 0 1009.5 -- 42
2020-11-05 23:00:00 21.6 10 Sudoeste 30 Este 0 1010.7 -- 42
2020-11-05 22:00:00 23.4 17 Este 36 Este 0 1010 -- 33
2020-11-05 21:00:00 22.5 9 Este 26 Este 0 1010.1 -- 39
2020-11-05 20:00:00 20.2 14 Sudeste 27 Sudeste 0 1010 -- 54
2020-11-05 19:00:00 20.6 10 Sudeste 27 Este 0 1010.3 -- 52
2020-11-05 18:00:00 22.1 5 Este 27 Sudeste 0 1009.9 -- 40
2020-11-05 17:00:00 21.3 8 Este 31 Sudeste 0 1010 -- 49
2020-11-05 16:00:00 19.7 16 Sudeste 33 Sudeste 0 1009.8 -- 63
2020-11-05 15:00:00 20 18 Sudeste 48 Sur 0 1010 -- 65
2020-11-05 14:00:00 19.9 18 Sudeste 35 Sudeste 0 1009.9 -- 63
2020-11-05 13:00:00 19.4 23 Sudeste 32 Sudeste 0 1009.8 -- 70
2020-11-05 12:00:00 19.1 8 Sudeste 23 Sudeste 0 1010.5 -- 75
2020-11-05 11:00:00 18.2 12 Este 35 Este 0 1011.1 -- 83
2020-11-05 10:00:00 18.3 10 Este 42 Este 0 1011.7 -- 72
2020-11-05 09:00:00 17.9 14 Este 37 Sudeste 0 1010.8 -- 82
2020-11-05 08:00:00 18.2 10 Este 41 Este 0 1010.3 -- 84
2020-11-05 07:00:00 18.2 15 Este 40 Sudeste 0 1010.2 -- 77
2020-11-05 06:00:00 17.5 6 Este 35 Sudeste 0.2 1009 -- 84
2020-11-05 05:00:00 17.1 9 Este 45 Este 0.3 1009.5 -- 83
2020-11-05 04:00:00 17.2 15 Este 53 Este 0.4 1009.4 -- 84
2020-11-05 03:00:00 17.4 17 Este 61 Nordeste 0 1009 -- 80
2020-11-05 02:00:00 17.9 17 Este 63 Sudeste 0 1009.1 -- 80
2020-11-05 01:00:00 16.6 38 Sudeste 67 Sudeste 10.6 1009.4 -- 91
2020-11-05 00:00:00 17.3 31 Sudeste 52 Este 1.7 1009.3 -- 91
2020-11-04 23:00:00 17.7 19 Sudeste 40 Este 0.3 1009.8 -- 88
2020-11-04 22:00:00 18 16 Este 46 Este 0 1010.9 -- 76
2020-11-04 21:00:00 17.7 8 Este 22 Este 0.2 1010.9 -- 82
2020-11-04 20:00:00 17.8 12 Este 21 Este 0.3 1010.8 -- 78
2020-11-04 19:00:00 18.1 6 Este 12 Este 0 1011.1 -- 68
2020-11-04 18:00:00 17.6 3 Nordeste 15 Este 0 1011.2 -- 73
2020-11-04 17:00:00 17.9 7 Este 15 Este 0 1011.6 -- 75
2020-11-04 16:00:00 19 2 Sudeste 12 Nordeste 0 1011.7 -- 64
2020-11-04 15:00:00 18.9 6 Este 10 Este 0 1011.7 -- 60
2020-11-04 14:00:00 21.3 2 Este 9 Este 0 1012.8 -- 56
2020-11-04 13:00:00 20.6 6 Sur 11 Sur 0 1013.7 -- 60
2020-11-04 12:00:00 19.4 8 Sur 15 Sudeste 0 1014.6 -- 64
2020-11-04 11:00:00 19.7 2 Sudeste 9 Sudeste 0 1015.1 -0.9 63
2020-11-04 10:00:00 18.1 0 Calma 0 Calma 0 1016.1 -- 70
2020-11-04 09:00:00 17.6 0 Calma 2 Sudoeste 0 1016.3 -- 72
2020-11-04 08:00:00 17 0 Calma 4 Norte 0 1016 -- 73
2020-11-04 07:00:00 16.8 0 Calma 2 Nordeste 0 1016.6 -- 74
2020-11-04 06:00:00 16.6 0 Calma 3 Noroeste 0 1017.1 -- 76
2020-11-04 05:00:00 16.6 0 Calma 2 Nordeste 0 1017.5 -- 76
2020-11-04 04:00:00 16.4 0 Calma 9 Norte 0 1018.2 -- 78
2020-11-04 03:00:00 16.3 0 Calma 12 Sudeste 0 1018.8 -- 80
2020-11-04 02:00:00 16.7 6 Este 13 Este 0 1019.5 -- 82
2020-11-04 01:00:00 16.1 4 Este 13 Este 0 1020.2 -- 85
2020-11-04 00:00:00 16.3 6 Este 12 Nordeste 0 1020.3 -- 85
2020-11-03 23:00:00 16.5 2 Este 8 Este 0 1020.4 -- 85
2020-11-03 22:00:00 16.5 5 Este 8 Este 0 1020.2 -- 85
2020-11-03 21:00:00 16.6 0 Calma 0 Calma 0 1019.9 -- 84
2020-11-03 20:00:00 16.8 0 Calma 0 Calma 0 1019.6 -- 83
2020-11-03 19:00:00 17.1 0 Calma 6 Sudeste 0 1019.4 -- 80
2020-11-03 18:00:00 17.6 0 Calma 8 Sudeste 0 1019.2 -- 75
2020-11-03 17:00:00 17.7 5 Sudeste 9 Sudeste 0 1018.9 -- 72
2020-11-03 16:00:00 19.1 5 Sur 11 Sur 0 1018.7 -- 66
2020-11-03 15:00:00 19.5 3 Sudeste 12 Sudeste 0 1018.8 -- 64
2020-11-03 14:00:00 19 5 Sudeste 9 Sudeste 0 1019.5 -- 64
2020-11-03 13:00:00 18.8 0 Calma 14 Sur 0 1020.1 -- 66
2020-11-03 12:00:00 19.7 0 Calma 10 Este 0 1020.6 -- 61
2020-11-03 11:00:00 18.1 0 Calma 7 Nordeste 0 1020.7 -- 73
2020-11-03 10:00:00 16.8 0 Calma 5 Nordeste 0 1020.7 -- 80
2020-11-03 09:00:00 15.5 0 Calma 5 Este 0 1020.4 -- 79
2020-11-03 08:00:00 14.1 0 Calma 2 Nordeste 0 1019.5 -- 77
2020-11-03 07:00:00 13.6 0 Calma 2 Norte 0 1019.2 -- 85
2020-11-03 06:00:00 13.7 0 Calma 4 Norte 0 1019.1 -- 87
2020-11-03 05:00:00 14.8 0 Calma 9 Nordeste 0 1019.1 -- 84
2020-11-03 04:00:00 15.2 0 Calma 6 Norte 0 1019.2 -- 81
2020-11-03 03:00:00 15.4 0 Calma 3 Este 0 1019.3 -- 79
2020-11-03 02:00:00 16.2 0 Calma 6 Este 0 1019.4 -- 77
2020-11-03 01:00:00 14.9 0 Calma 0 Calma 0 1019.6 -- 76
2020-11-03 00:00:00 15.4 0 Calma 6 Norte 0 1019.8 -- 78
2020-11-02 23:00:00 15.3 0 Calma 0 Calma 0 1019.7 -- 83
2020-11-02 22:00:00 16.2 0 Calma 0 Calma 0 1019.7 -- 84
2020-11-02 21:00:00 16.1 0 Calma 0 Calma 0 1019.5 -- 85
2020-11-02 20:00:00 16.5 0 Calma 4 Este 0 1019.4 -- 85
2020-11-02 19:00:00 16.6 3 Este 9 Este 0 1019 -- 83
2020-11-02 18:00:00 17 5 Este 9 Este 0 1018.7 -- 80
2020-11-02 17:00:00 16.9 6 Sudeste 10 Este 0 1018.6 -- 78
2020-11-02 16:00:00 17.8 6 Sudeste 11 Este 0 1018.5 -- 73
2020-11-02 15:00:00 17.6 6 Sudeste 12 Sudeste 0 1018.9 -- 74
2020-11-02 14:00:00 17.5 7 Sudeste 14 Sudeste 0 1019.5 -- 75
2020-11-02 13:00:00 17.4 8 Sudeste 12 Este 0 1020.1 -- 72
2020-11-02 12:00:00 18.4 2 Sudeste 9 Sudeste 0 1020.8 -- 71
2020-11-02 11:00:00 16.6 0 Calma 18 Este 0 1020.9 -- 77
2020-11-02 10:00:00 16.3 6 Este 12 Este 0 1020.6 -- 79
2020-11-02 09:00:00 18.6 4 Este 8 Este 0 1019.7 -- 54
2020-11-02 08:00:00 15.5 0 Calma 0 Calma 0 1019.6 -- 60
2020-11-02 07:00:00 15.1 0 Calma 0 Calma 0 1019.4 -- 63
2020-11-02 06:00:00 15.4 0 Calma 0 Calma 0 1019.2 -- 62
2020-11-02 05:00:00 15.3 0 Calma 0 Calma 0 1019.2 -- 62
2020-11-02 04:00:00 15.4 0 Calma 2 Noroeste 0 1019.1 -- 62
2020-11-02 03:00:00 15.3 0 Calma 0 Calma 0 1019.3 -- 70
2020-11-02 02:00:00 16.2 0 Calma 0 Calma 0 1019.6 -- 67
2020-11-02 01:00:00 16.2 0 Calma 2 Noroeste 0 1019.8 -- 60
2020-11-02 00:00:00 16 0 Calma 2 Norte 0 1020.1 -- 69
2020-11-01 23:00:00 16.2 0 Calma 6 Noroeste 0 1020.5 -- 80
2020-11-01 22:00:00 16.4 0 Calma 2 Norte 0 1020.4 -- 87
2020-11-01 21:00:00 17 0 Calma 0 Calma 0 1020.3 -- 87
2020-11-01 20:00:00 17.6 0 Calma 0 Calma 0 1020 -- 87
2020-11-01 19:00:00 17.8 0 Calma 4 Este 0 1019.8 -- 85
2020-11-01 18:00:00 18.3 0 Calma 9 Sudeste 0 1019.6 -- 80
2020-11-01 17:00:00 19 5 Sudeste 9 Sudeste 0 1019.6 -- 75
2020-11-01 16:00:00 19.5 0 Calma 9 Sudeste 0 1019.8 -- 71
2020-11-01 15:00:00 19.9 5 Sudeste 12 Sur 0 1020.1 -- 69
2020-11-01 14:00:00 18.6 8 Sudeste 12 Sudeste 0 1020.6 -- 71
2020-11-01 13:00:00 19.5 5 Sudeste 10 Este 0 1021.3 -- 67
2020-11-01 12:00:00 19.8 3 Sudeste 9 Sudeste 0 1022 -- 63
2020-11-01 11:00:00 20.8 0 Calma 7 Este 0 1022 -- 56
2020-11-01 10:00:00 20.9 0 Calma 7 Este 0 1021.6 -- 53
2020-11-01 09:00:00 19.3 0 Calma 3 Este 0 1021.1 -- 57
2020-11-01 08:00:00 15.6 0 Calma 5 Norte 0 1020.9 -- 66
2020-11-01 07:00:00 15.6 0 Calma 0 Calma 0 1020.4 -- 64
2020-11-01 06:00:00 15.7 0 Calma 0 Calma 0 1020.3 -- 65
2020-11-01 05:00:00 15.8 0 Calma 2 Noroeste 0 1020.6 -- 64
2020-11-01 04:00:00 15.9 0 Calma 12 Norte 0 1021.1 -- 64
2020-11-01 03:00:00 16.3 0 Calma 6 Noroeste 0 1021.4 -- 64
2020-11-01 02:00:00 16.4 0 Calma 7 Norte 0 1021.5 -- 64
2020-11-01 01:00:00 16.5 0 Calma 3 Nordeste 0 1021.7 -- 64
2020-11-01 00:00:00 17.1 0 Calma 7 Noroeste 0 1021.8 -- 63
2020-10-31 23:00:00 17.5 0 Calma 5 Norte 0 1021.9 -- 64
2020-10-31 22:00:00 18 0 Calma 10 Norte 0 1021.7 -- 63
2020-10-31 21:00:00 18.2 4 Norte 7 Norte 0 1021.2 -- 65
2020-10-31 20:00:00 18.4 0 Calma 0 Calma 0 1020.9 -- 75
2020-10-31 19:00:00 18.6 0 Calma 7 Sudeste 0 1020.7 -- 71
2020-10-31 18:00:00 19.9 0 Calma 5 Sudeste 0 1020.5 -- 63
2020-10-31 17:00:00 21.5 0 Calma 8 Sudeste 0 1020.6 -- 59
2020-10-31 16:00:00 21.4 0 Calma 9 Este 0 1020.4 -- 61
2020-10-31 15:00:00 22.2 2 Sudeste 12 Sudeste 0 1020.6 -- 58
2020-10-31 14:00:00 22.6 2 Sudeste 8 Sudeste 0 1021.3 -- 51
2020-10-31 13:00:00 21.3 4 Sudeste 10 Sudeste 0 1021.7 -- 56
2020-10-31 12:00:00 22.2 0 Calma 9 Sudeste 0 1022.5 -- 49
2020-10-31 11:00:00 22.1 3 Sudeste 6 Este 0 1022.5 -- 44
2020-10-31 10:00:00 21.4 0 Calma 2 Noroeste 0 1022.3 -- 49
2020-10-31 09:00:00 17.9 0 Calma 3 Nordeste 0 1022.3 -- 55
2020-10-31 08:00:00 16.5 0 Calma 2 Noroeste 0 1021.9 -- 63
2020-10-31 07:00:00 16.6 0 Calma 0 Calma 0 1021.7 -- 61
2020-10-31 06:00:00 16.7 0 Calma 2 Noroeste 0 1021.6 -- 62
2020-10-31 05:00:00 16.4 0 Calma 9 Noroeste 0 1021.1 -- 64
2020-10-31 04:00:00 16.3 0 Calma 3 Norte 0 1021.5 -- 64
2020-10-31 03:00:00 16.7 0 Calma 13 Norte 0 1021.7 -- 64
2020-10-31 02:00:00 16.9 0 Calma 2 Noroeste 0 1022.1 -- 64
2020-10-31 01:00:00 17.1 0 Calma 10 Norte 0 1022.2 -- 63
2020-10-31 00:00:00 17.5 0 Calma 8 Norte 0 1022.4 -- 62
2020-10-30 23:00:00 17.7 0 Calma 10 Norte 0 1022.1 -- 62
2020-10-30 22:00:00 18.1 0 Calma 0 Calma 0 1021.8 -- 61
2020-10-30 21:00:00 18.5 0 Calma 4 Norte 0 1021.4 -- 60
2020-10-30 20:00:00 18.7 0 Calma 4 Norte 0 1021.3 -- 60
2020-10-30 19:00:00 18.9 0 Calma 4 Este 0 1020.9 -- 59
2020-10-30 18:00:00 19.1 0 Calma 0 Calma 0 1020.9 -- 57
2020-10-30 17:00:00 20 3 Sur 12 Sudeste 0 1020.9 -- 54
2020-10-30 16:00:00 21.3 5 Sudoeste 11 Sudoeste 0 1020.7 -- 49
2020-10-30 15:00:00 21.6 0 Calma 10 Sur 0 1020.9 -- 49
2020-10-30 14:00:00 21.5 9 Sur 12 Sur 0 1021.4 -- 51
2020-10-30 13:00:00 21.9 0 Calma 2 Sur 0 1022 -- 47
2020-10-30 12:00:00 21.4 0 Calma 3 Sur 0 1022.6 -- 48
2020-10-30 11:00:00 21.6 0 Calma 3 Sudoeste 0 1022.8 -- 46
2020-10-30 10:00:00 20.6 0 Calma 13 Noroeste 0 1022.8 -- 51
2020-10-30 09:00:00 16.9 8 Noroeste 15 Norte 0 1022.8 -- 60
2020-10-30 08:00:00 15.5 9 Noroeste 15 Norte 0 1022.5 -- 64
2020-10-30 07:00:00 15.4 4 Noroeste 15 Norte 0 1022.2 -- 64
2020-10-30 06:00:00 15.2 0 Calma 16 Noroeste 0 1022 -- 65
2020-10-30 05:00:00 15.2 7 Noroeste 15 Norte 0 1022 -- 65
2020-10-30 04:00:00 15.6 0 Calma 13 Noroeste 0 1022.2 -- 63
2020-10-30 03:00:00 15.8 0 Calma 6 Norte 0 1022.5 -- 61
2020-10-30 02:00:00 16.1 2 Noroeste 11 Norte 0 1022.6 -- 60
2020-10-30 01:00:00 16.3 8 Noroeste 15 Noroeste 0 1022.6 -- 59
2020-10-30 00:00:00 16.8 0 Calma 8 Noroeste 0 1022.7 -- 57
2020-10-29 23:00:00 17.3 0 Calma 13 Norte 0 1022.6 -- 55
2020-10-29 22:00:00 17.8 4 Norte 10 Norte 0 1022.7 -- 54
2020-10-29 21:00:00 18.4 3 Noroeste 12 Noroeste 0 1022.4 -- 52
2020-10-29 20:00:00 19.5 3 Nordeste 13 Este 0 1022.1 -- 49
2020-10-29 19:00:00 19.3 2 Sudeste 15 Sudeste 0 1021.7 -- 52
2020-10-29 18:00:00 20 9 Sudeste 17 Sur 0 1021.4 -- 48
2020-10-29 17:00:00 20.6 4 Sur 12 Sur 0 1021.2 -- 43
2020-10-29 16:00:00 20.2 0 Calma 2 Sur 0 1021.2 -- 47
2020-10-29 15:00:00 20 0 Calma 10 Sur 0 1021.3 -- 55
2020-10-29 14:00:00 20.9 0 Calma 10 Sudeste 0 1021.9 -- 51
2020-10-29 13:00:00 20.9 2 Sudeste 10 Este 0 1022.5 -- 47
2020-10-29 12:00:00 21.3 2 Sudeste 9 Este 0 1023 -- 45
2020-10-29 11:00:00 19.9 0 Calma 7 Sudeste 0 1022.9 -- 47
2020-10-29 10:00:00 20.7 0 Calma 4 Este 0 1022.5 -- 45
2020-10-29 09:00:00 16.5 0 Calma 12 Noroeste 0 1021.9 -- 50
2020-10-29 08:00:00 15 0 Calma 10 Noroeste 0 1021.6 -- 56
2020-10-29 07:00:00 14.7 0 Calma 0 Calma 0 1021.3 -- 60
2020-10-29 06:00:00 14.7 0 Calma 11 Noroeste 0 1020.8 -- 60
2020-10-29 05:00:00 14.9 0 Calma 12 Noroeste 0 1020.6 -- 63
2020-10-29 04:00:00 15.1 0 Calma 6 Norte 0 1020.7 -- 64
2020-10-29 03:00:00 15.1 0 Calma 0 Calma 0 1020.8 -- 65
2020-10-29 02:00:00 15.5 0 Calma 5 Nordeste 0 1020.5 -- 65
2020-10-29 01:00:00 15.9 0 Calma 5 Norte 0 1020.6 -- 65
2020-10-29 00:00:00 16.1 0 Calma 11 Noroeste 0 1020.7 -- 66
2020-10-28 23:00:00 16 9 Noroeste 14 Noroeste 0 1020.7 -- 69
2020-10-28 22:00:00 16.5 0 Calma 3 Nordeste 0 1020.3 -- 71
2020-10-28 21:00:00 16.5 0 Calma 6 Nordeste 0 1020.1 -- 77
2020-10-28 20:00:00 17.1 3 Este 5 Este 0 1019.6 -- 76
2020-10-28 19:00:00 17.3 0 Calma 6 Sudeste 0 1018.9 -- 75
2020-10-28 18:00:00 17.9 2 Sudeste 8 Sudeste 0 1018.5 -- 70
2020-10-28 17:00:00 18.9 5 Sudeste 11 Este 0 1018.3 -- 65
2020-10-28 16:00:00 19.4 7 Sudeste 13 Sudeste 0 1018.4 -- 64
2020-10-28 15:00:00 19.8 7 Sur 12 Sudeste 0 1018.5 -- 62
2020-10-28 14:00:00 19.8 3 Este 12 Sur 0 1018.7 -- 59
2020-10-28 13:00:00 19.8 7 Sur 13 Sudeste 0 1019.2 -- 63
2020-10-28 12:00:00 19.4 7 Sudeste 11 Sur 0 1019.5 -- 57
2020-10-28 11:00:00 20.3 0 Calma 12 Oeste 0 1019.3 -- 39
2020-10-28 10:00:00 18.5 0 Calma 11 Noroeste 0 1018.9 -- 44
2020-10-28 09:00:00 16.4 0 Calma 12 Oeste 0 1018.4 -- 46
2020-10-28 08:00:00 15.6 0 Calma 10 Oeste 0 1017.7 -- 48
2020-10-28 07:00:00 15.2 0 Calma 16 Noroeste 0 1017.4 -- 47
2020-10-28 06:00:00 15.3 3 Noroeste 13 Oeste 0 1017.1 -- 46
2020-10-28 05:00:00 14.6 0 Calma 0 Calma 0 1016.9 -- 44
2020-10-28 04:00:00 14.4 0 Calma 10 Norte 0 1017 -- 45
2020-10-28 03:00:00 14.4 5 Noroeste 13 Norte 0 1017 -- 45
2020-10-28 02:00:00 14.9 0 Calma 7 Norte 0 1017.2 -- 47
2020-10-28 01:00:00 15.3 0 Calma 6 Nordeste 0 1017.4 -- 49
2020-10-28 00:00:00 16.3 3 Nordeste 16 Noroeste 0 1017.3 -- 44
2020-10-27 23:00:00 17.2 0 Calma 16 Oeste 0 1017.1 -- 41
2020-10-27 22:00:00 17.9 0 Calma 12 Oeste 0 1016.8 -- 40
2020-10-27 21:00:00 18.3 0 Calma 3 Sudoeste 0 1016.5 -- 40
2020-10-27 20:00:00 19 0 Calma 9 Noroeste 0 1016.5 -- 39
2020-10-27 19:00:00 17.3 0 Calma 17 Este 0 1016.2 -- 60
2020-10-27 18:00:00 18.6 12 Este 21 Este 0 1015.7 -- 49
2020-10-27 17:00:00 18.2 15 Este 27 Este 0 1015.7 -- 53
2020-10-27 16:00:00 19.9 17 Este 23 Este 0 1015.4 -- 43
2020-10-27 15:00:00 21.4 8 Sudeste 21 Sudoeste 0 1015.5 -- 35
2020-10-27 14:00:00 24.1 0 Calma 23 Sudoeste 0 1016.3 -- 23
2020-10-27 13:00:00 22.2 0 Calma 24 Oeste 0 1017.3 -- 28
2020-10-27 12:00:00 21 7 Sudoeste 22 Oeste 0 1018.2 -- 34
2020-10-27 11:00:00 20.1 0 Calma 21 Oeste 0 1018.5 -- 39
2020-10-27 10:00:00 16.6 12 Oeste 21 Sudoeste 0 1018.5 -- 45
2020-10-27 09:00:00 15 0 Calma 21 Oeste 0 1018.2 -- 49
2020-10-27 08:00:00 13.5 2 Oeste 28 Oeste 0 1018.1 -- 53
2020-10-27 07:00:00 13.5 3 Oeste 19 Noroeste 0 1018 -- 51
2020-10-27 06:00:00 13.8 2 Oeste 24 Oeste 0 1017.9 -- 50
2020-10-27 05:00:00 14.2 8 Oeste 23 Sudoeste 0 1017.6 -- 49
2020-10-27 04:00:00 14 0 Calma 28 Oeste 0 1017.6 -- 51
2020-10-27 03:00:00 14.5 0 Calma 22 Noroeste 0 1018.2 -- 48
2020-10-27 02:00:00 15.1 5 Oeste 26 Noroeste 0 1018.4 -- 46
2020-10-27 01:00:00 15.8 10 Oeste 28 Oeste 0 1018.2 -- 45
2020-10-27 00:00:00 16.9 19 Oeste 31 Oeste 0 1018.6 -- 41
2020-10-26 23:00:00 15.3 0 Calma 10 Este 0 1019.2 -- 48
2020-10-26 22:00:00 17.1 5 Noroeste 21 Noroeste 0 1018.5 -- 41
2020-10-26 21:00:00 16.7 10 Noroeste 22 Noroeste 0 1018.1 -- 45
2020-10-26 20:00:00 17.1 0 Calma 28 Oeste 0 1017.7 -- 45
2020-10-26 19:00:00 17.6 7 Oeste 28 Noroeste 0 1017.4 -- 44
2020-10-26 18:00:00 18.3 8 Noroeste 25 Noroeste 0 1016.9 -- 40
2020-10-26 17:00:00 18.8 13 Noroeste 31 Oeste 0 1016.6 -- 36
2020-10-26 16:00:00 19.1 17 Noroeste 35 Noroeste 0 1016 -- 37
2020-10-26 15:00:00 19.2 13 Noroeste 39 Noroeste 0 1015.7 -- 37
2020-10-26 14:00:00 19.2 15 Noroeste 37 Oeste 0 1016 -- 39
2020-10-26 13:00:00 18.7 7 Noroeste 36 Oeste 0 1016.6 -- 40
2020-10-26 12:00:00 19 8 Noroeste 42 Norte 0 1016.8 -- 40
2020-10-26 11:00:00 17.5 12 Noroeste 41 Noroeste 0 1016 -- 46
2020-10-26 10:00:00 17.1 10 Noroeste 34 Oeste 0 1015.5 -- 48
2020-10-26 09:00:00 16.5 0 Calma 28 Noroeste 0 1015.3 -- 53
2020-10-26 08:00:00 15.7 11 Noroeste 38 Oeste 0 1014.9 -- 58
2020-10-26 07:00:00 16.6 10 Oeste 40 Oeste 0 1014.3 -- 57
2020-10-26 06:00:00 17.2 14 Oeste 40 Noroeste 0 1014.1 -- 58
2020-10-26 05:00:00 17.3 19 Noroeste 41 Noroeste 0 1013.6 -- 60
2020-10-26 04:00:00 17.2 14 Noroeste 33 Noroeste 0 1013.3 -- 63
2020-10-26 03:00:00 16.9 6 Noroeste 30 Noroeste 0 1014.1 -- 68
2020-10-26 02:00:00 17.2 0 Calma 11 Norte 0.2 1014.4 -- 71
2020-10-26 01:00:00 17.6 0 Calma 9 Norte 0 1013.4 -- 60
2020-10-26 00:00:00 17.5 6 Norte 12 Norte 0 1014.1 -- 62